createdAt,value
2022-12-09T00:06:59.356Z,29.35
2022-12-09T00:14:34.711Z,26.77
2022-12-09T00:22:08.673Z,32.30
2022-12-09T00:29:44.172Z,28.27
2022-12-09T00:37:18.603Z,28.50
2022-12-09T00:44:54.086Z,33.00
2022-12-09T00:52:28.382Z,32.85
2022-12-09T01:00:04.061Z,28.88
2022-12-09T01:07:38.660Z,27.65
2022-12-09T01:15:14.555Z,28.20
2022-12-09T01:22:48.481Z,28.98
2022-12-09T01:30:23.981Z,30.40
2022-12-09T01:37:58.004Z,29.85
2022-12-09T01:53:17.410Z,28.48
2022-12-09T02:00:52.758Z,28.25
2022-12-09T02:08:26.627Z,29.83
2022-12-09T02:16:06.121Z,27.27
2022-12-09T02:23:43.577Z,27.95
2022-12-09T02:31:33.366Z,28.38
2022-12-09T02:39:11.198Z,26.40
2022-12-09T02:46:46.606Z,26.35
2022-12-09T02:54:24.560Z,29.17
2022-12-09T03:02:05.637Z,29.65
2022-12-09T03:09:46.449Z,30.52
2022-12-09T03:17:24.294Z,29.73
2022-12-09T03:25:06.993Z,27.95
2022-12-09T03:32:43.219Z,23.75
2022-12-09T03:40:24.314Z,26.63
2022-12-09T03:47:58.684Z,23.50
2022-12-09T03:55:40.996Z,22.70
2022-12-09T04:03:16.209Z,21.73
2022-12-09T04:10:51.482Z,24.73
2022-12-09T04:18:25.582Z,25.02
2022-12-09T04:26:01.251Z,18.83
2022-12-09T04:33:35.078Z,22.23
2022-12-09T04:41:11.092Z,22.25
2022-12-09T04:48:45.237Z,25.50
2022-12-09T05:03:56.371Z,22.85
2022-12-09T05:11:32.186Z,17.23
2022-12-09T05:19:06.338Z,21.02
2022-12-09T05:34:15.958Z,22.35
2022-12-09T05:41:51.712Z,23.38
2022-12-09T05:49:26.277Z,24.92
2022-12-09T05:57:05.288Z,19.73
2022-12-09T06:04:39.527Z,21.80
2022-12-09T06:12:15.794Z,22.00
2022-12-09T06:19:50.077Z,24.45
2022-12-09T06:27:25.863Z,25.38
2022-12-09T06:35:00.419Z,24.45
2022-12-09T06:42:36.306Z,22.15
2022-12-09T06:50:11.123Z,23.23
2022-12-09T06:57:46.859Z,22.20
2022-12-09T07:05:20.792Z,21.38
2022-12-09T07:20:30.571Z,24.95
2022-12-09T07:28:06.751Z,28.63
2022-12-09T07:35:40.896Z,26.58
2022-12-09T07:43:16.838Z,26.73
2022-12-09T07:50:50.844Z,24.42
2022-12-09T08:06:00.684Z,20.17
2022-12-09T08:13:37.274Z,21.45
2022-12-09T08:21:14.186Z,27.98
2022-12-09T08:28:50.253Z,19.10
2022-12-09T08:36:26.408Z,18.90
2022-12-09T08:51:54.839Z,22.33
2022-12-09T08:59:30.882Z,24.63
2022-12-09T09:07:05.544Z,20.95
2022-12-09T09:14:41.207Z,27.15
2022-12-09T09:22:15.202Z,28.92
2022-12-09T09:29:50.972Z,34.45
2022-12-09T09:37:25.209Z,32.67
2022-12-09T09:45:04.738Z,27.65
2022-12-09T09:52:42.774Z,26.27
2022-12-09T10:00:27.129Z,26.50
2022-12-09T10:08:17.409Z,20.88
2022-12-09T10:16:02.743Z,16.92
2022-12-09T10:23:37.085Z,26.00
2022-12-09T10:31:14.374Z,20.08
2022-12-09T10:38:48.883Z,23.67
2022-12-09T10:46:25.559Z,19.75
2022-12-09T10:54:02.861Z,17.65
2022-12-09T11:01:49.941Z,20.23
2022-12-09T11:09:28.860Z,18.63
2022-12-09T11:17:17.067Z,19.90
2022-12-09T11:24:54.824Z,17.42
2022-12-09T11:32:32.393Z,21.17
2022-12-09T11:40:07.730Z,16.45
2022-12-09T11:55:48.451Z,20.23
2022-12-09T12:03:31.481Z,26.58
2022-12-09T12:11:14.824Z,23.63
2022-12-09T12:18:57.007Z,21.10
2022-12-09T12:26:40.260Z,22.80
2022-12-09T12:34:26.530Z,23.35
2022-12-09T12:42:08.933Z,23.25
2022-12-09T12:50:04.301Z,20.77
2022-12-09T12:57:46.098Z,25.25
2022-12-09T13:05:24.115Z,21.70
2022-12-09T13:13:01.681Z,28.08
2022-12-09T13:20:47.519Z,34.60
2022-12-09T13:28:28.737Z,29.58
2022-12-09T13:36:10.229Z,32.17
2022-12-09T13:43:44.541Z,33.83
2022-12-09T13:51:20.576Z,44.25
2022-12-09T13:59:30.020Z,46.42
2022-12-09T14:07:17.889Z,42.50
2022-12-09T14:14:53.005Z,41.17
2022-12-09T14:22:40.231Z,40.58
2022-12-09T14:30:48.269Z,46.13
2022-12-09T14:38:28.703Z,42.97
2022-12-09T14:46:04.401Z,35.20
2022-12-09T14:53:39.783Z,37.70
2022-12-09T15:01:13.838Z,38.88
2022-12-09T15:16:27.207Z,31.38
2022-12-09T15:24:02.741Z,30.23
2022-12-09T15:31:36.937Z,32.60
2022-12-09T15:39:19.894Z,28.38
2022-12-09T15:46:57.580Z,36.03
2022-12-09T15:54:38.825Z,30.30
2022-12-09T16:02:21.241Z,32.85
2022-12-09T16:10:07.021Z,29.58
2022-12-09T16:17:53.780Z,31.17
2022-12-09T16:25:35.719Z,34.70
2022-12-09T16:33:17.703Z,31.15
2022-12-09T16:41:14.616Z,27.80
2022-12-09T16:48:50.058Z,33.05
2022-12-09T16:56:27.337Z,28.20
2022-12-09T17:04:05.167Z,28.45
2022-12-09T17:11:47.033Z,36.40
2022-12-09T17:19:22.847Z,27.63
2022-12-09T17:27:00.431Z,39.80
2022-12-09T17:34:34.252Z,32.60
2022-12-09T17:42:09.613Z,31.45
2022-12-09T17:49:43.454Z,29.75
